createdAt,value
2018-07-20T00:00:52.404Z,25
2018-07-20T00:01:56.998Z,25
2018-07-20T00:03:01.927Z,25
2018-07-20T00:04:07.092Z,25
2018-07-20T00:05:12.578Z,25
2018-07-20T00:06:17.788Z,25
2018-07-20T00:07:23.488Z,25
2018-07-20T00:08:28.922Z,25
2018-07-20T00:09:34.329Z,25
2018-07-20T00:10:39.473Z,25
2018-07-20T00:11:44.932Z,25
2018-07-20T00:12:50.564Z,25
2018-07-20T00:13:55.708Z,25
2018-07-20T00:15:01.174Z,25
2018-07-20T00:16:06.118Z,25
2018-07-20T00:17:11.312Z,25
2018-07-20T00:18:16.506Z,25
2018-07-20T00:19:22.093Z,25
2018-07-20T00:20:26.970Z,25
2018-07-20T00:21:32.520Z,25
2018-07-20T00:22:37.709Z,25
2018-07-20T00:23:42.911Z,25
2018-07-20T00:24:48.311Z,25
2018-07-20T00:25:53.232Z,25
2018-07-20T00:26:58.384Z,25
2018-07-20T00:28:03.593Z,25
2018-07-20T00:29:08.524Z,25
2018-07-20T00:30:13.690Z,25
2018-07-20T00:31:18.719Z,25
2018-07-20T00:32:23.923Z,25
2018-07-20T00:33:29.675Z,25
2018-07-20T00:34:35.170Z,25
2018-07-20T00:35:40.313Z,25
2018-07-20T00:36:45.758Z,25
2018-07-20T00:37:50.946Z,25
2018-07-20T00:38:56.124Z,25
2018-07-20T00:40:01.800Z,25
2018-07-20T00:41:06.476Z,25
2018-07-20T00:42:11.919Z,25
2018-07-20T00:43:17.470Z,25
2018-07-20T00:44:22.701Z,25
2018-07-20T00:45:27.878Z,25
2018-07-20T00:46:33.029Z,25
2018-07-20T00:47:38.182Z,25
2018-07-20T00:48:43.458Z,25
2018-07-20T00:49:48.621Z,25
2018-07-20T00:50:53.799Z,25
2018-07-20T00:51:59.489Z,25
2018-07-20T00:53:04.749Z,25
2018-07-20T00:54:09.918Z,25
2018-07-20T00:55:15.421Z,25
2018-07-20T00:56:20.850Z,25
2018-07-20T00:58:45.264Z,25
2018-07-20T00:59:50.699Z,25
2018-07-20T01:00:56.600Z,25
2018-07-20T01:02:01.764Z,25
2018-07-20T01:03:06.635Z,25
2018-07-20T01:04:12.412Z,25
2018-07-20T01:05:17.581Z,25
2018-07-20T01:06:23.039Z,25
2018-07-20T01:07:29.482Z,25
2018-07-20T01:08:34.956Z,25
2018-07-20T01:09:40.481Z,25
2018-07-20T01:10:45.421Z,25
2018-07-20T01:11:50.336Z,25
2018-07-20T01:12:56.256Z,25
2018-07-20T01:14:01.134Z,25
2018-07-20T01:15:06.015Z,25
2018-07-20T01:16:11.832Z,25
2018-07-20T01:17:16.919Z,25
2018-07-20T01:18:22.411Z,25
2018-07-20T01:19:27.806Z,25
2018-07-20T01:20:32.952Z,25
2018-07-20T01:21:38.347Z,25
2018-07-20T01:22:43.217Z,25
2018-07-20T01:23:48.682Z,25
2018-07-20T01:24:54.360Z,25
2018-07-20T01:25:59.808Z,25
2018-07-20T01:27:04.984Z,25
2018-07-20T01:28:10.387Z,25
2018-07-20T01:29:15.878Z,25
2018-07-20T01:30:21.302Z,25
2018-07-20T01:31:26.578Z,25
2018-07-20T01:32:32.008Z,25
2018-07-20T01:33:37.705Z,25
2018-07-20T01:34:42.847Z,25
2018-07-20T01:35:48.275Z,25
2018-07-20T01:36:53.674Z,25
2018-07-20T01:37:59.130Z,25
2018-07-20T01:39:04.109Z,25
2018-07-20T01:40:09.127Z,25
2018-07-20T01:41:14.647Z,25
2018-07-20T01:42:19.808Z,25
2018-07-20T01:43:39.958Z,25
2018-07-20T01:44:44.841Z,25
2018-07-20T01:45:50.019Z,25
2018-07-20T01:46:55.451Z,25
2018-07-20T01:48:00.895Z,25
2018-07-20T01:49:05.725Z,25
2018-07-20T01:50:10.891Z,25
2018-07-20T01:51:16.062Z,25
2018-07-20T01:52:21.201Z,25
2018-07-20T01:53:26.061Z,25
2018-07-20T01:54:32.189Z,25
2018-07-20T01:55:37.619Z,25
2018-07-20T01:56:43.085Z,25
2018-07-20T01:57:48.963Z,25
2018-07-20T01:58:54.124Z,25
2018-07-20T01:59:59.610Z,25
2018-07-20T02:01:05.178Z,25
2018-07-20T02:02:10.152Z,25
2018-07-20T02:03:15.312Z,25
2018-07-20T02:04:21.011Z,25
2018-07-20T02:05:25.942Z,25
2018-07-20T02:06:31.535Z,25
2018-07-20T02:07:36.808Z,25
2018-07-20T02:08:41.704Z,25
2018-07-20T02:09:47.010Z,25
2018-07-20T02:10:52.459Z,25
2018-07-20T02:11:57.968Z,25
2018-07-20T02:13:02.958Z,25
2018-07-20T02:14:08.468Z,25
2018-07-20T02:15:13.621Z,25
2018-07-20T02:16:19.113Z,25
2018-07-20T02:17:24.025Z,25
2018-07-20T02:18:29.027Z,25
2018-07-20T02:19:33.890Z,25
2018-07-20T02:20:39.116Z,25
2018-07-20T02:21:44.958Z,25
2018-07-20T02:22:50.109Z,25
2018-07-20T02:23:55.298Z,25
2018-07-20T02:25:00.563Z,25
2018-07-20T02:26:06.025Z,25
2018-07-20T02:27:10.964Z,25
2018-07-20T02:28:16.650Z,25
2018-07-20T02:29:21.279Z,25
2018-07-20T02:30:27.225Z,25
2018-07-20T02:31:32.812Z,25
2018-07-20T02:32:38.469Z,25
2018-07-20T02:33:43.311Z,25
2018-07-20T02:34:47.976Z,25
2018-07-20T02:35:52.852Z,25
2018-07-20T02:36:57.822Z,25
2018-07-20T02:38:03.281Z,25
2018-07-20T02:39:08.189Z,25
2018-07-20T02:40:13.884Z,25
2018-07-20T02:41:18.842Z,25
2018-07-20T02:42:23.994Z,25
2018-07-20T02:43:44.505Z,25
2018-07-20T02:44:49.935Z,25
2018-07-20T02:45:55.441Z,25
2018-07-20T02:47:00.943Z,25
2018-07-20T02:48:05.817Z,25
2018-07-20T02:49:11.039Z,25
2018-07-20T02:50:16.197Z,25
2018-07-20T02:51:21.347Z,25
2018-07-20T02:52:27.076Z,25
2018-07-20T02:53:32.555Z,25
2018-07-20T02:54:38.296Z,25
2018-07-20T02:55:43.904Z,25
2018-07-20T02:56:49.176Z,25
2018-07-20T02:57:54.620Z,25
2018-07-20T02:58:59.801Z,25
2018-07-20T03:00:04.976Z,25
2018-07-20T03:01:10.820Z,25
2018-07-20T03:02:15.717Z,25
2018-07-20T03:03:20.633Z,25
2018-07-20T03:04:26.621Z,25
2018-07-20T03:05:32.032Z,25
2018-07-20T03:06:37.496Z,25
2018-07-20T03:07:42.357Z,25
2018-07-20T03:08:47.784Z,25
2018-07-20T03:09:53.385Z,25
2018-07-20T03:10:57.991Z,25
2018-07-20T03:12:03.133Z,25
2018-07-20T03:13:08.265Z,25
2018-07-20T03:14:13.423Z,25
2018-07-20T03:15:18.564Z,25
2018-07-20T03:16:23.990Z,25
2018-07-20T03:17:29.149Z,25
2018-07-20T03:18:34.271Z,25
2018-07-20T03:19:39.460Z,25
2018-07-20T03:20:44.676Z,25
2018-07-20T03:21:49.795Z,25
2018-07-20T03:22:55.228Z,25
2018-07-20T03:24:00.736Z,25
2018-07-20T03:25:06.237Z,25
2018-07-20T03:26:11.399Z,25
2018-07-20T03:27:16.828Z,25
2018-07-20T03:28:21.989Z,25
2018-07-20T03:29:26.908Z,25
2018-07-20T03:30:32.741Z,25
2018-07-20T03:31:37.393Z,25
2018-07-20T03:32:42.375Z,25
2018-07-20T03:33:48.770Z,25
2018-07-20T03:34:53.919Z,25
2018-07-20T03:35:59.336Z,25
2018-07-20T03:37:04.457Z,25
2018-07-20T03:38:09.908Z,25
2018-07-20T03:39:15.052Z,25
2018-07-20T03:40:20.828Z,25
2018-07-20T03:41:26.038Z,25
2018-07-20T03:42:31.918Z,25
2018-07-20T03:43:37.363Z,25
2018-07-20T03:44:41.958Z,25
2018-07-20T03:45:47.509Z,25
2018-07-20T03:46:52.662Z,25
2018-07-20T03:47:58.025Z,25
2018-07-20T03:49:03.877Z,25
2018-07-20T03:50:08.748Z,25
2018-07-20T03:51:13.630Z,25
2018-07-20T03:52:19.737Z,25
2018-07-20T03:53:24.885Z,25
2018-07-20T03:54:30.440Z,25
2018-07-20T03:55:35.614Z,25
2018-07-20T03:56:41.045Z,25
2018-07-20T03:57:45.924Z,25
2018-07-20T03:58:51.345Z,25
2018-07-20T03:59:56.229Z,25
2018-07-20T04:01:02.115Z,25
2018-07-20T04:02:07.544Z,25
2018-07-20T04:03:12.999Z,25
2018-07-20T04:04:18.564Z,25
2018-07-20T04:05:24.054Z,24
2018-07-20T04:06:29.984Z,24
2018-07-20T04:07:34.846Z,24
2018-07-20T04:08:40.065Z,24
2018-07-20T04:09:45.909Z,24
2018-07-20T04:10:51.337Z,24
2018-07-20T04:11:56.550Z,24
2018-07-20T04:13:01.984Z,24
2018-07-20T04:14:06.293Z,24
2018-07-20T04:15:10.625Z,24
2018-07-20T04:16:16.016Z,24
2018-07-20T04:17:21.222Z,24
2018-07-20T04:18:27.132Z,24
2018-07-20T04:19:32.598Z,24
2018-07-20T04:20:37.555Z,24
2018-07-20T04:21:42.979Z,24
2018-07-20T04:22:47.837Z,24
2018-07-20T04:23:53.332Z,24
2018-07-20T04:24:59.164Z,24
2018-07-20T04:26:04.315Z,24
2018-07-20T04:27:09.514Z,24
2018-07-20T04:28:15.208Z,24
2018-07-20T04:29:20.074Z,24
2018-07-20T04:30:40.582Z,24
2018-07-20T04:31:45.737Z,24
2018-07-20T04:32:50.995Z,24
2018-07-20T04:33:56.427Z,24
2018-07-20T04:35:01.570Z,24
2018-07-20T04:36:06.431Z,24
2018-07-20T04:37:11.317Z,24
2018-07-20T04:38:16.747Z,24
2018-07-20T04:39:21.937Z,24
2018-07-20T04:40:27.648Z,24
2018-07-20T04:41:32.502Z,24
2018-07-20T04:42:38.192Z,24
2018-07-20T04:43:43.673Z,24
2018-07-20T04:44:48.873Z,24
2018-07-20T04:45:54.575Z,25
2018-07-20T04:46:59.775Z,24
2018-07-20T04:48:04.355Z,25
2018-07-20T04:49:09.761Z,24
2018-07-20T04:50:14.909Z,25
2018-07-20T04:51:20.350Z,24
2018-07-20T04:52:25.996Z,24
2018-07-20T04:53:31.158Z,24
2018-07-20T04:54:36.840Z,25
2018-07-20T04:55:42.083Z,24
2018-07-20T04:56:47.225Z,25
2018-07-20T04:57:52.341Z,25
2018-07-20T04:58:57.364Z,25
2018-07-20T05:00:01.969Z,25
2018-07-20T05:01:07.115Z,25
2018-07-20T05:02:12.257Z,25
2018-07-20T05:03:17.764Z,25
2018-07-20T05:04:23.461Z,25
2018-07-20T05:05:28.695Z,25
2018-07-20T05:06:34.485Z,25
2018-07-20T05:07:39.637Z,25
2018-07-20T05:08:44.825Z,25
2018-07-20T05:09:50.226Z,25
2018-07-20T05:10:55.659Z,25
2018-07-20T05:12:00.817Z,25
2018-07-20T05:13:05.725Z,25
2018-07-20T05:14:10.596Z,25
2018-07-20T05:15:16.024Z,25
2018-07-20T05:16:21.853Z,25
2018-07-20T05:17:25.895Z,25
2018-07-20T05:18:31.308Z,25
2018-07-20T05:19:36.819Z,25
2018-07-20T05:20:42.329Z,25
2018-07-20T05:21:48.029Z,25
2018-07-20T05:22:53.559Z,25
2018-07-20T05:23:58.769Z,25
2018-07-20T05:25:04.287Z,25
2018-07-20T05:26:09.754Z,25
2018-07-20T05:27:14.351Z,25
2018-07-20T05:28:19.183Z,25
2018-07-20T05:29:24.674Z,25
2018-07-20T05:30:29.766Z,25
2018-07-20T05:31:34.906Z,25
2018-07-20T05:32:40.348Z,25
2018-07-20T05:33:46.850Z,25
2018-07-20T05:34:51.999Z,25
2018-07-20T05:35:57.476Z,25
2018-07-20T05:37:02.725Z,25
2018-07-20T05:38:07.886Z,25
2018-07-20T05:39:13.730Z,25
2018-07-20T05:40:19.402Z,25
2018-07-20T05:41:24.624Z,25
2018-07-20T05:42:29.896Z,25
2018-07-20T05:43:35.330Z,25
2018-07-20T05:44:40.805Z,25
2018-07-20T05:45:46.523Z,26
2018-07-20T05:46:51.969Z,25
2018-07-20T05:47:56.836Z,25
2018-07-20T05:49:01.692Z,25
2018-07-20T05:50:06.311Z,26
2018-07-20T05:51:11.460Z,25
2018-07-20T05:52:17.390Z,25
2018-07-20T05:53:22.839Z,25
2018-07-20T05:54:28.418Z,25
2018-07-20T05:55:33.557Z,25
2018-07-20T05:56:38.700Z,25
2018-07-20T05:57:44.266Z,26
2018-07-20T05:58:49.470Z,26
2018-07-20T05:59:54.921Z,26
2018-07-20T06:01:00.041Z,25
2018-07-20T06:02:05.236Z,26
2018-07-20T06:03:09.886Z,26
2018-07-20T06:04:15.010Z,26
2018-07-20T06:05:20.493Z,26
2018-07-20T06:06:26.475Z,26
2018-07-20T06:07:31.396Z,26
2018-07-20T06:08:36.845Z,26
2018-07-20T06:09:42.259Z,26
2018-07-20T06:10:47.434Z,26
2018-07-20T06:11:52.589Z,26
2018-07-20T06:12:58.033Z,26
2018-07-20T06:14:03.018Z,26
2018-07-20T06:15:08.356Z,26
2018-07-20T06:16:14.154Z,26
2018-07-20T06:17:19.015Z,26
2018-07-20T06:18:23.878Z,26
2018-07-20T06:19:44.076Z,26
2018-07-20T06:20:49.222Z,26
2018-07-20T06:21:54.962Z,26
2018-07-20T06:22:59.917Z,26
2018-07-20T06:24:04.865Z,26
2018-07-20T06:25:09.899Z,26
2018-07-20T06:26:15.349Z,26
2018-07-20T06:27:20.798Z,26
2018-07-20T06:28:41.186Z,26
2018-07-20T06:29:46.036Z,26
2018-07-20T06:30:50.682Z,26
2018-07-20T06:31:56.153Z,26
2018-07-20T06:33:01.358Z,26
2018-07-20T06:34:07.040Z,26
2018-07-20T06:35:12.053Z,26
2018-07-20T06:36:17.275Z,26
2018-07-20T06:37:22.969Z,26
2018-07-20T06:38:28.228Z,26
2018-07-20T06:39:33.211Z,26
2018-07-20T06:40:38.701Z,26
2018-07-20T06:41:43.754Z,26
2018-07-20T06:42:48.908Z,26
2018-07-20T06:43:54.057Z,26
2018-07-20T06:44:59.593Z,26
2018-07-20T06:46:04.861Z,27
2018-07-20T06:47:08.885Z,26
2018-07-20T06:48:14.073Z,27
2018-07-20T06:49:19.210Z,27
2018-07-20T06:50:24.580Z,27
2018-07-20T06:51:30.338Z,27
2018-07-20T06:52:35.538Z,27
2018-07-20T06:53:40.901Z,27
2018-07-20T06:54:46.752Z,27
2018-07-20T06:55:51.651Z,27
2018-07-20T06:56:57.175Z,27
2018-07-20T06:58:02.982Z,27
2018-07-20T06:59:07.325Z,27
2018-07-20T07:00:12.801Z,27
2018-07-20T07:01:18.248Z,27
2018-07-20T07:02:23.691Z,27
2018-07-20T07:03:29.461Z,27
2018-07-20T07:04:34.941Z,27
2018-07-20T07:05:40.192Z,27
2018-07-20T07:06:45.498Z,27
2018-07-20T07:07:50.925Z,27
2018-07-20T07:08:55.967Z,27
2018-07-20T07:10:01.750Z,27
2018-07-20T07:11:06.074Z,27
2018-07-20T07:12:11.238Z,27
2018-07-20T07:13:16.725Z,27
2018-07-20T07:14:21.592Z,27
2018-07-20T07:15:27.534Z,27
2018-07-20T07:16:33.058Z,27
2018-07-20T07:17:37.720Z,27
2018-07-20T07:18:43.207Z,27
2018-07-20T07:19:48.101Z,27
2018-07-20T07:20:53.521Z,27
2018-07-20T07:21:59.078Z,27
2018-07-20T07:23:04.246Z,27
2018-07-20T07:24:08.835Z,27
2018-07-20T07:25:14.543Z,27
2018-07-20T07:26:19.710Z,27
2018-07-20T07:27:24.572Z,27
2018-07-20T07:28:30.180Z,27
2018-07-20T07:29:34.794Z,27
2018-07-20T07:30:40.470Z,27
2018-07-20T07:31:45.997Z,27
2018-07-20T07:32:50.323Z,28
2018-07-20T07:33:55.931Z,28
2018-07-20T07:35:01.084Z,28
2018-07-20T07:36:05.112Z,28
2018-07-20T07:37:09.980Z,28
2018-07-20T07:38:15.167Z,28
2018-07-20T07:39:20.159Z,28
2018-07-20T07:40:25.898Z,28
2018-07-20T07:41:31.403Z,28
2018-07-20T07:42:36.974Z,28
2018-07-20T07:43:41.880Z,28
2018-07-20T07:44:47.305Z,28
2018-07-20T07:45:52.837Z,28
2018-07-20T07:46:57.789Z,28
2018-07-20T07:48:03.250Z,28
2018-07-20T07:49:08.798Z,28
2018-07-20T07:50:13.713Z,28
2018-07-20T07:51:18.933Z,28
2018-07-20T07:52:24.450Z,28
2018-07-20T07:53:29.318Z,28
2018-07-20T07:54:35.162Z,28
2018-07-20T07:55:40.610Z,28
2018-07-20T07:56:45.837Z,28
2018-07-20T07:57:50.789Z,28
2018-07-20T07:58:56.470Z,28
2018-07-20T08:00:01.362Z,28
2018-07-20T08:01:06.851Z,28
2018-07-20T08:02:11.997Z,28
2018-07-20T08:03:17.427Z,28
2018-07-20T08:04:22.825Z,28
2018-07-20T08:05:27.981Z,28
2018-07-20T08:06:33.776Z,28
2018-07-20T08:07:38.964Z,28
2018-07-20T08:08:44.391Z,28
2018-07-20T08:09:49.418Z,28
2018-07-20T08:10:55.760Z,28
2018-07-20T08:12:00.919Z,28
2018-07-20T08:13:05.764Z,28
2018-07-20T08:14:11.473Z,28
2018-07-20T08:15:16.755Z,28
2018-07-20T08:16:22.430Z,28
2018-07-20T08:17:27.940Z,28
2018-07-20T08:18:33.714Z,27
2018-07-20T08:19:39.148Z,28
2018-07-20T08:20:44.310Z,28
2018-07-20T08:21:50.229Z,28
2018-07-20T08:22:55.180Z,28
2018-07-20T08:24:00.904Z,28
2018-07-20T08:25:05.308Z,28
2018-07-20T08:26:09.622Z,28
2018-07-20T08:27:14.552Z,28
2018-07-20T08:28:20.580Z,28
2018-07-20T08:29:26.067Z,28
2018-07-20T08:30:31.474Z,28
2018-07-20T08:31:36.645Z,27
2018-07-20T08:32:41.780Z,28
2018-07-20T08:33:46.746Z,28
2018-07-20T08:34:52.177Z,28
2018-07-20T08:35:57.317Z,28
2018-07-20T08:37:03.076Z,28
2018-07-20T08:38:08.231Z,28
2018-07-20T08:39:13.378Z,28
2018-07-20T08:40:19.054Z,28
2018-07-20T08:41:23.784Z,28
2018-07-20T08:42:29.333Z,28
2018-07-20T08:43:34.962Z,28
2018-07-20T08:44:40.973Z,28
2018-07-20T08:45:46.369Z,28
2018-07-20T08:46:52.013Z,29
2018-07-20T08:47:57.439Z,29
2018-07-20T08:49:02.837Z,30
2018-07-20T08:50:08.048Z,30
2018-07-20T08:51:13.269Z,30
2018-07-20T08:52:18.669Z,30
2018-07-20T08:53:23.879Z,30
2018-07-20T08:54:29.759Z,30
2018-07-20T08:55:34.697Z,30
2018-07-20T08:56:39.886Z,30
2018-07-20T08:57:45.358Z,30
2018-07-20T08:58:50.567Z,30
2018-07-20T08:59:56.207Z,30
2018-07-20T09:01:02.171Z,30
2018-07-20T09:02:07.515Z,30
2018-07-20T09:03:12.731Z,30
2018-07-20T09:04:18.221Z,30
2018-07-20T09:05:22.867Z,31
2018-07-20T09:06:28.441Z,30
2018-07-20T09:07:33.628Z,30
2018-07-20T09:08:39.078Z,30
2018-07-20T09:09:44.701Z,30
2018-07-20T09:10:49.631Z,30
2018-07-20T09:11:55.062Z,30
2018-07-20T09:13:00.952Z,30
2018-07-20T09:14:05.877Z,30
2018-07-20T09:15:11.334Z,30
2018-07-20T09:16:17.124Z,30
2018-07-20T09:17:22.629Z,30
2018-07-20T09:18:27.772Z,30
2018-07-20T09:19:32.661Z,30
2018-07-20T09:20:38.243Z,30
2018-07-20T09:21:44.112Z,30
2018-07-20T09:22:48.965Z,30
2018-07-20T09:23:54.452Z,30
2018-07-20T09:24:59.940Z,30
2018-07-20T09:26:04.808Z,30
2018-07-20T09:27:10.032Z,30
2018-07-20T09:28:15.517Z,30
2018-07-20T09:29:21.283Z,30
2018-07-20T09:30:27.125Z,30
2018-07-20T09:31:32.270Z,30
2018-07-20T09:32:37.470Z,30
2018-07-20T09:33:42.870Z,30
2018-07-20T09:34:47.763Z,30
2018-07-20T09:35:53.279Z,30
2018-07-20T09:36:58.127Z,30
2018-07-20T09:38:02.782Z,30
2018-07-20T09:39:07.655Z,30
2018-07-20T09:40:13.060Z,30
2018-07-20T09:41:18.498Z,30
2018-07-20T09:42:23.639Z,30
2018-07-20T09:43:29.613Z,30
2018-07-20T09:44:35.246Z,30
2018-07-20T09:45:40.795Z,30
2018-07-20T09:46:45.998Z,30
2018-07-20T09:47:50.577Z,30
2018-07-20T09:48:56.135Z,30
2018-07-20T09:50:01.232Z,30
2018-07-20T09:51:05.945Z,30
2018-07-20T09:52:11.443Z,30
2018-07-20T09:53:16.583Z,30
2018-07-20T09:54:21.486Z,30
2018-07-20T09:55:40.976Z,30
2018-07-20T09:56:46.405Z,30
2018-07-20T09:57:51.091Z,30
2018-07-20T09:58:56.588Z,30
2018-07-20T10:00:01.245Z,29
2018-07-20T10:01:06.288Z,30
2018-07-20T10:02:11.779Z,29
2018-07-20T10:03:17.205Z,29
2018-07-20T10:04:22.996Z,29
2018-07-20T10:05:27.611Z,29
2018-07-20T10:06:32.999Z,29
2018-07-20T10:07:38.450Z,29
2018-07-20T10:08:43.334Z,29
2018-07-20T10:09:48.744Z,30
2018-07-20T10:10:53.948Z,29
2018-07-20T10:11:59.099Z,29
2018-07-20T10:13:04.541Z,29
2018-07-20T10:14:09.469Z,29
2018-07-20T10:15:13.864Z,29
2018-07-20T10:16:19.542Z,29
2018-07-20T10:17:24.718Z,29
2018-07-20T10:18:30.262Z,29
2018-07-20T10:19:35.135Z,29
2018-07-20T10:20:40.345Z,29
2018-07-20T10:21:46.025Z,29
2018-07-20T10:22:51.179Z,29
2018-07-20T10:23:56.751Z,29
2018-07-20T10:25:02.135Z,29
2018-07-20T10:26:06.430Z,29
2018-07-20T10:27:11.862Z,29
2018-07-20T10:28:17.283Z,29
2018-07-20T10:29:22.415Z,29
2018-07-20T10:30:27.941Z,29
2018-07-20T10:31:33.120Z,29
2018-07-20T10:32:38.049Z,29
2018-07-20T10:33:43.166Z,29
2018-07-20T10:34:48.073Z,29
2018-07-20T10:35:52.711Z,29
2018-07-20T10:36:58.267Z,29
2018-07-20T10:38:03.770Z,29
2018-07-20T10:39:08.973Z,29
2018-07-20T10:40:13.820Z,29
2018-07-20T10:41:18.799Z,29
2018-07-20T10:42:24.077Z,29
2018-07-20T10:43:44.227Z,29
2018-07-20T10:44:49.667Z,29
2018-07-20T10:45:55.388Z,29
2018-07-20T10:47:00.655Z,29
2018-07-20T10:48:06.127Z,29
2018-07-20T10:49:11.367Z,29
2018-07-20T10:50:16.588Z,29
2018-07-20T10:51:21.742Z,29
2018-07-20T10:52:27.382Z,29
2018-07-20T10:53:32.822Z,29
2018-07-20T10:54:38.129Z,29
2018-07-20T10:55:43.575Z,29
2018-07-20T10:56:48.452Z,29
2018-07-20T10:57:54.225Z,29
2018-07-20T10:58:59.380Z,29
2018-07-20T11:00:04.530Z,29
2018-07-20T11:01:09.705Z,29
2018-07-20T11:02:14.937Z,29
2018-07-20T11:03:19.888Z,29
2018-07-20T11:04:25.293Z,29
2018-07-20T11:05:29.871Z,29
2018-07-20T11:06:35.578Z,28
2018-07-20T11:07:41.091Z,28
2018-07-20T11:08:46.522Z,28
2018-07-20T11:09:50.885Z,28
2018-07-20T11:10:56.042Z,28
2018-07-20T11:12:01.684Z,28
2018-07-20T11:13:06.567Z,28
2018-07-20T11:14:12.055Z,28
2018-07-20T11:15:17.208Z,28
2018-07-20T11:16:22.189Z,28
2018-07-20T11:17:27.628Z,28
2018-07-20T11:18:33.521Z,28
2018-07-20T11:19:38.674Z,28
2018-07-20T11:20:44.526Z,28
2018-07-20T11:21:50.303Z,28
2018-07-20T11:22:55.534Z,28
2018-07-20T11:24:00.708Z,28
2018-07-20T11:25:05.974Z,28
2018-07-20T11:26:10.591Z,28
2018-07-20T11:27:16.014Z,28
2018-07-20T11:28:21.847Z,28
2018-07-20T11:29:27.295Z,28
2018-07-20T11:30:33.013Z,28
2018-07-20T11:31:38.171Z,28
2018-07-20T11:32:43.516Z,28
2018-07-20T11:33:49.558Z,28
2018-07-20T11:34:54.986Z,28
2018-07-20T11:36:00.155Z,28
2018-07-20T11:37:05.657Z,28
2018-07-20T11:38:10.731Z,28
2018-07-20T11:39:15.670Z,28
2018-07-20T11:40:21.351Z,28
2018-07-20T11:41:26.831Z,28
2018-07-20T11:42:32.649Z,28
2018-07-20T11:43:38.064Z,28
2018-07-20T11:44:42.659Z,28
2018-07-20T11:45:48.351Z,28
2018-07-20T11:46:53.790Z,28
2018-07-20T11:47:59.246Z,28
2018-07-20T11:49:04.753Z,28
2018-07-20T11:50:09.690Z,27
2018-07-20T11:51:14.614Z,27
2018-07-20T11:52:19.492Z,27
2018-07-20T11:53:24.678Z,27
2018-07-20T11:54:29.941Z,27
2018-07-20T11:55:35.439Z,27
2018-07-20T11:56:40.596Z,27
2018-07-20T11:57:46.010Z,27
2018-07-20T11:58:51.494Z,27
2018-07-20T11:59:56.646Z,27
2018-07-20T12:01:02.079Z,27
2018-07-20T12:02:06.392Z,27
2018-07-20T12:03:11.551Z,27
2018-07-20T12:04:17.253Z,27
2018-07-20T12:05:22.422Z,27
2018-07-20T12:06:27.429Z,27
2018-07-20T12:07:32.808Z,27
2018-07-20T12:08:37.948Z,27
2018-07-20T12:09:43.438Z,27
2018-07-20T12:10:48.305Z,27
2018-07-20T12:11:53.464Z,27
2018-07-20T12:12:58.935Z,27
2018-07-20T12:14:04.100Z,27
2018-07-20T12:15:09.259Z,27
2018-07-20T12:16:14.472Z,27
2018-07-20T12:17:19.699Z,27
2018-07-20T12:19:45.275Z,27
2018-07-20T12:20:50.148Z,27
2018-07-20T12:21:55.107Z,27
2018-07-20T12:22:59.744Z,27
2018-07-20T12:24:04.877Z,27
2018-07-20T12:25:09.743Z,27
2018-07-20T12:26:14.925Z,27
2018-07-20T12:27:20.356Z,27
2018-07-20T12:28:25.855Z,27
2018-07-20T12:29:30.777Z,27
2018-07-20T12:30:36.194Z,27
2018-07-20T12:31:41.152Z,27
2018-07-20T12:32:46.691Z,27
2018-07-20T12:33:51.919Z,27
2018-07-20T12:34:57.162Z,27
2018-07-20T12:36:02.419Z,27
2018-07-20T12:37:07.686Z,27
2018-07-20T12:38:12.556Z,27
2018-07-20T12:39:17.762Z,27
2018-07-20T12:40:23.632Z,27
2018-07-20T12:41:28.506Z,27
2018-07-20T12:42:34.118Z,27
2018-07-20T12:43:39.437Z,27
2018-07-20T12:44:44.589Z,27
2018-07-20T12:45:50.286Z,27
2018-07-20T12:46:55.535Z,27
2018-07-20T12:48:00.684Z,27
2018-07-20T12:49:05.463Z,27
2018-07-20T12:50:10.648Z,26
2018-07-20T12:51:16.722Z,27
2018-07-20T12:52:21.608Z,27
2018-07-20T12:53:26.236Z,26
2018-07-20T12:54:31.677Z,26
2018-07-20T12:55:36.660Z,26
2018-07-20T12:56:42.143Z,26
2018-07-20T12:57:47.912Z,27
2018-07-20T12:58:53.384Z,27
2018-07-20T12:59:58.899Z,26
2018-07-20T13:01:03.492Z,26
2018-07-20T13:02:08.193Z,26
2018-07-20T13:03:13.085Z,27
2018-07-20T13:04:18.970Z,26
2018-07-20T13:05:24.321Z,26
2018-07-20T13:06:30.190Z,26
2018-07-20T13:07:35.624Z,26
2018-07-20T13:08:41.163Z,26
2018-07-20T13:09:46.948Z,27
2018-07-20T13:10:52.187Z,26
2018-07-20T13:11:57.836Z,26
2018-07-20T13:13:04.230Z,26
2018-07-20T13:14:09.135Z,26
2018-07-20T13:15:14.584Z,26
2018-07-20T13:16:19.177Z,26
2018-07-20T13:17:24.677Z,26
2018-07-20T13:18:29.961Z,26
2018-07-20T13:19:35.465Z,26
2018-07-20T13:20:40.665Z,26
2018-07-20T13:21:45.790Z,26
2018-07-20T13:22:50.932Z,26
2018-07-20T13:23:56.642Z,26
2018-07-20T13:25:02.488Z,26
2018-07-20T13:26:07.639Z,26
2018-07-20T13:27:12.791Z,26
2018-07-20T13:28:18.183Z,26
2018-07-20T13:29:23.690Z,26
2018-07-20T13:30:29.324Z,26
2018-07-20T13:31:34.769Z,26
2018-07-20T13:32:39.944Z,26
2018-07-20T13:33:45.782Z,26
2018-07-20T13:34:50.170Z,26
2018-07-20T13:35:55.065Z,26
2018-07-20T13:37:00.564Z,26
2018-07-20T13:38:05.151Z,26
2018-07-20T13:39:09.744Z,26
2018-07-20T13:40:14.751Z,26
2018-07-20T13:41:19.661Z,26
2018-07-20T13:42:24.978Z,26
2018-07-20T13:43:30.367Z,26
2018-07-20T13:44:35.249Z,26
2018-07-20T13:45:40.695Z,26
2018-07-20T13:46:46.131Z,26
2018-07-20T13:47:51.363Z,26
2018-07-20T13:48:57.133Z,26
2018-07-20T13:50:01.722Z,26
2018-07-20T13:51:06.306Z,26
2018-07-20T13:52:11.533Z,26
2018-07-20T13:53:16.683Z,26
2018-07-20T13:54:21.571Z,26
2018-07-20T13:55:26.617Z,26
2018-07-20T13:56:31.765Z,26
2018-07-20T13:57:37.156Z,26
2018-07-20T13:58:42.338Z,26
2018-07-20T13:59:47.769Z,26
2018-07-20T14:00:52.934Z,26
2018-07-20T14:01:58.400Z,26
2018-07-20T14:03:03.564Z,26
2018-07-20T14:04:08.681Z,26
2018-07-20T14:05:14.116Z,26
2018-07-20T14:06:19.287Z,26
2018-07-20T14:07:24.400Z,26
2018-07-20T14:08:29.324Z,26
2018-07-20T14:09:34.888Z,25
2018-07-20T14:10:40.082Z,25
2018-07-20T14:11:44.950Z,26
2018-07-20T14:12:50.413Z,25
2018-07-20T14:13:55.847Z,25
2018-07-20T14:15:01.002Z,25
2018-07-20T14:16:05.323Z,25
2018-07-20T14:17:10.198Z,25
2018-07-20T14:18:15.636Z,25
2018-07-20T14:19:20.672Z,25
2018-07-20T14:20:26.104Z,25
2018-07-20T14:21:32.064Z,25
2018-07-20T14:22:37.233Z,25
2018-07-20T14:23:42.485Z,25
2018-07-20T14:24:48.520Z,25
2018-07-20T14:25:53.402Z,25
2018-07-20T14:26:58.838Z,25
2018-07-20T14:28:04.306Z,25
2018-07-20T14:29:08.952Z,25
2018-07-20T14:30:13.867Z,25
2018-07-20T14:31:19.274Z,25
2018-07-20T14:32:24.571Z,25
2018-07-20T14:33:30.259Z,25
2018-07-20T14:34:35.418Z,25
2018-07-20T14:35:40.632Z,25
2018-07-20T14:36:46.166Z,25
2018-07-20T14:37:51.311Z,25
2018-07-20T14:38:56.801Z,25
2018-07-20T14:40:02.165Z,25
2018-07-20T14:41:07.267Z,25
2018-07-20T14:42:12.718Z,25
2018-07-20T14:43:17.416Z,25
2018-07-20T14:44:22.572Z,25
2018-07-20T14:45:27.685Z,25
2018-07-20T14:46:33.113Z,25
2018-07-20T14:47:38.611Z,25
2018-07-20T14:48:44.041Z,25
2018-07-20T14:49:49.546Z,25
2018-07-20T14:50:54.701Z,25
2018-07-20T14:51:59.676Z,25
2018-07-20T14:53:04.823Z,25
2018-07-20T14:54:09.749Z,25
2018-07-20T14:55:15.616Z,25
2018-07-20T14:56:21.041Z,25
2018-07-20T14:57:26.645Z,25
2018-07-20T14:58:31.826Z,25
2018-07-20T14:59:37.171Z,25
2018-07-20T15:00:42.424Z,25
2018-07-20T15:01:47.927Z,26
2018-07-20T15:02:53.422Z,26
2018-07-20T15:03:58.821Z,25
2018-07-20T15:05:04.278Z,26
2018-07-20T15:06:09.724Z,26
2018-07-20T15:07:15.447Z,26
2018-07-20T15:08:20.874Z,26
2018-07-20T15:09:26.242Z,26
2018-07-20T15:10:30.713Z,26
2018-07-20T15:11:36.464Z,26
2018-07-20T15:12:41.699Z,26
2018-07-20T15:13:46.576Z,26
2018-07-20T15:14:51.718Z,26
2018-07-20T15:15:56.824Z,26
2018-07-20T15:17:02.256Z,26
2018-07-20T15:18:06.715Z,26
2018-07-20T15:19:12.102Z,26
2018-07-20T15:20:17.528Z,26
2018-07-20T15:21:22.696Z,26
2018-07-20T15:22:28.387Z,26
2018-07-20T15:23:34.023Z,26
2018-07-20T15:24:39.306Z,26
2018-07-20T15:25:44.159Z,26
2018-07-20T15:26:49.357Z,26
2018-07-20T15:27:54.845Z,26
2018-07-20T15:28:59.983Z,26
2018-07-20T15:30:04.586Z,26
2018-07-20T15:31:09.726Z,26
2018-07-20T15:32:14.966Z,26
2018-07-20T15:33:20.436Z,26
2018-07-20T15:34:25.802Z,26
2018-07-20T15:35:30.673Z,26